Tilden, TX (78072)

2:19 AM CDT on August 20, 2014 (GMT -0500)
Huajuco Road | Change Station
CLOSE
Current Station
Personal Weather Station
Location: Cotulla, TX
Elevation: 394 ft
Nearby Weather Stations

Elev 394 ft 28.19 °N, 99.01 °W | Updated 23 seconds ago

Clear
Clear
79.7 °F
Feels Like 84 °F
N
6.3
Wind Variable Wind from East
Gusts 11.0 mph

Today
High -- | Low -- °F
--% Chance of Precip.
Yesterday
High -- | Low -- °F
Precip. -- in
7:06 AM 8:08 PM
Waning Crescent, 24% visible
Pressure 29.86 in
Visibility 9.0 miles
Clouds Clear
Heat Index 84 °F
Dew Point 73 °F
Humidity 81%
Rainfall 0.00 in
Snow Depth Not available.
UV 0 out of 12
Pollen 7.40 out of 12
Air Quality Not available.
Flu Activity Not available.
METAR KCOT 200653Z AUTO 15015G20KT 9SM CLR 27/22 A2988 RMK AO2 SLP110 T02720222

More Conditions Fewer Conditions

Pressure 29.86 in
Visibility 9.0 miles
Clouds Clear
Heat Index 84 °F
Dew Point 73 °F
Humidity 81%
Rainfall 0.00 in
Snow Depth Not available.
UV 0 out of 12
Pollen 7.40 out of 12
Air Quality Not available.
Flu Activity Not available.
METAR KCOT 200653Z AUTO 15015G20KT 9SM CLR 27/22 A2988 RMK AO2 SLP110 T02720222

More Conditions Fewer Conditions

10-Day Weather Forecast

Almanac

Astronomy

Aug. 20, 2014 Rise Set
Actual Time 7:06 AM CDT 8:08 PM CDT
Civil Twilight 6:42 AM CDT 8:32 PM CDT
Nautical Twilight 6:13 AM CDT 9:01 PM CDT
Astronomical Twilight 5:43 AM CDT 9:31 PM CDT
Moon 2:56 AM CDT 4:46 PM CDT
Length of Visible Light 13h 50m
Length of Day
13h 01m
Tomorrow will be 1m 31s shorter.
Waning Crescent, 24% of the Moon is Illuminated
Today
Waning Crescent
Aug 25
New
Sep 2
First Quarter
Sep 8
Full
Sep 15
Last Quarter

Today's Extremes

State Highs State Lows

Community

WunderPhotos

Upload Photos

1,745,592 photos uploaded!

Nearby

Snow Depth

Station Depth Elevation
No new snow has been reported.

Earthquake Activity

City Distance Mag. Time & Date
No recent earthquake activity has been reported nearby.
Minimum magnitude displayed is 2.5.

Coastal Water Temperatures

Place Temperature
No Stations Reporting

Nearby Weather Stations